Terminal Aerodrome Forecast
Issued by NWS Paducah, KY

Home | Current Version | Previous Version | Text Only | Print | Product List | Glossary On
Versions: 1 2 3 4 5 6 7 8 9 10 11 12 13 14 15 16 17 18 19 20 21 22 23
000
FTUS43 KPAH 061731
TAFPAH
TAF
KPAH 061731Z 0618/0718 22010KT P6SM SCT030
     FM070100 19006KT P6SM BKN250
     FM070900 23010KT 6SM BR OVC070 PROB30 0710/0715 5SM -TSRA
      BKN050CB=

USA.gov is the U.S. government's official web portal to all federal, state and local government web resources and services.